La rose des vents
Donnes mto: Semaine 19/05/08 - 25/05/08 (S 21)
Date Horaire Temp. E. Hum. E. P.atmo. Pluie Vent 1mn Direction Ensoleilleme Ev.Tr. Solaire P. de rose Temp au vent Rafales
19/05/2008 00:00 15,3 C 93 % 1003,6 hPa 0,0 l/m 0,3 km/h (0 Bft) NE 0,00 h 0,025 mm 0 W/m 14,1 C 15,3 C 0,9 km/h (0 Bft)
19/05/2008 01:00 15,2 C 93 % 1003,1 hPa 0,0 l/m 0,2 km/h (0 Bft) N-NE 0,00 h 0,000 mm 0 W/m 14,1 C 15,2 C 0,6 km/h (0 Bft)
19/05/2008 02:00 15,0 C 93 % 1002,7 hPa 0,0 l/m 0,1 km/h (0 Bft) N-NE 0,00 h 0,000 mm 0 W/m 13,9 C 15,0 C 0,3 km/h (0 Bft)
19/05/2008 03:00 14,8 C 93 % 1002,3 hPa 0,0 l/m 0,6 km/h (0 Bft) N 0,00 h 0,000 mm 0 W/m 13,6 C 14,8 C 1,2 km/h (1 Bft)
19/05/2008 04:00 14,5 C 93 % 1002,3 hPa 0,0 l/m 1,5 km/h (1 Bft) N 0,00 h 0,000 mm 0 W/m 13,4 C 14,5 C 2,5 km/h (1 Bft)
19/05/2008 05:00 13,7 C 93 % 1002,0 hPa 0,0 l/m 2,3 km/h (1 Bft) N-NO 0,00 h 0,000 mm 0 W/m 12,6 C 13,7 C 4,3 km/h (1 Bft)
19/05/2008 06:00 13,3 C 94 % 1001,8 hPa 0,0 l/m 1,3 km/h (1 Bft) N-NO 0,00 h 0,000 mm 19 W/m 12,3 C 13,3 C 2,4 km/h (1 Bft)
19/05/2008 07:00 13,7 C 94 % 1001,9 hPa 0,0 l/m 2,4 km/h (1 Bft) N 0,23 h 0,000 mm 115 W/m 12,7 C 13,7 C 4,7 km/h (1 Bft)
19/05/2008 08:00 15,9 C 85 % 1002,0 hPa 0,0 l/m 4,9 km/h (1 Bft) NE 0,70 h 0,076 mm 250 W/m 13,3 C 15,9 C 7,3 km/h (2 Bft)
19/05/2008 09:00 17,8 C 76 % 1002,1 hPa 0,0 l/m 5,8 km/h (2 Bft) E-NE 0,90 h 0,152 mm 338 W/m 13,5 C 17,8 C 8,4 km/h (2 Bft)
19/05/2008 10:00 18,4 C 77 % 1002,2 hPa 0,0 l/m 6,6 km/h (2 Bft) E 0,63 h 0,203 mm 400 W/m 14,2 C 18,4 C 10,9 km/h (2 Bft)
19/05/2008 11:00 18,7 C 78 % 1002,3 hPa 0,0 l/m 7,0 km/h (2 Bft) E 0,52 h 0,254 mm 471 W/m 14,8 C 18,7 C 12,9 km/h (3 Bft)
19/05/2008 12:00 19,5 C 78 % 1002,2 hPa 0,0 l/m 6,3 km/h (2 Bft) E 0,68 h 0,305 mm 599 W/m 15,6 C 19,5 C 10,2 km/h (2 Bft)
19/05/2008 13:00 20,4 C 72 % 1001,7 hPa 0,0 l/m 7,3 km/h (2 Bft) E 0,93 h 0,356 mm 899 W/m 15,2 C 20,4 C 12,5 km/h (3 Bft)
19/05/2008 14:00 20,1 C 71 % 1001,4 hPa 0,0 l/m 6,6 km/h (2 Bft) E 1,00 h 0,559 mm 729 W/m 14,5 C 20,1 C 10,8 km/h (2 Bft)
19/05/2008 15:00 19,9 C 71 % 1001,2 hPa 0,0 l/m 6,2 km/h (2 Bft) E 0,50 h 0,457 mm 467 W/m 14,4 C 19,9 C 9,6 km/h (2 Bft)
19/05/2008 16:00 18,4 C 73 % 1000,8 hPa 0,0 l/m 4,6 km/h (1 Bft) S-SE 0,00 h 0,305 mm 209 W/m 13,5 C 18,4 C 7,1 km/h (2 Bft)
19/05/2008 17:00 18,5 C 73 % 1000,6 hPa 0,0 l/m 1,4 km/h (1 Bft) S-SE 0,00 h 0,152 mm 202 W/m 13,6 C 18,5 C 2,7 km/h (1 Bft)
19/05/2008 18:00 18,4 C 74 % 1000,3 hPa 0,0 l/m 1,4 km/h (1 Bft) S-SE 0,00 h 0,127 mm 139 W/m 13,6 C 18,4 C 2,8 km/h (1 Bft)
19/05/2008 19:00 18,1 C 76 % 1000,0 hPa 0,0 l/m 3,2 km/h (1 Bft) S-SE 0,00 h 0,076 mm 70 W/m 13,7 C 18,1 C 4,7 km/h (1 Bft)
19/05/2008 20:00 17,2 C 78 % 1000,0 hPa 0,0 l/m 1,7 km/h (1 Bft) O-SO 0,00 h 0,051 mm 17 W/m 13,4 C 17,2 C 2,5 km/h (1 Bft)
19/05/2008 21:00 16,5 C 80 % 999,4 hPa 0,0 l/m 4,5 km/h (1 Bft) N-NO 0,00 h 0,025 mm 0 W/m 13,0 C 16,5 C 6,7 km/h (2 Bft)
19/05/2008 22:00 16,1 C 81 % 999,3 hPa 0,0 l/m 0,5 km/h (0 Bft) N-NO 0,00 h 0,025 mm 0 W/m 12,9 C 16,1 C 1,5 km/h (1 Bft)
19/05/2008 23:00 15,9 C 85 % 999,1 hPa 0,0 l/m 1,4 km/h (1 Bft) N-NO 0,00 h 0,025 mm 0 W/m 13,3 C 15,9 C 2,3 km/h (1 Bft)
20/05/2008 00:00 15,3 C 88 % 999,9 hPa 0,2 l/m 10,2 km/h (2 Bft) E-NE 0,00 h 0,025 mm 0 W/m 13,3 C 15,3 C 14,5 km/h (3 Bft)
20/05/2008 01:00 14,5 C 91 % 999,4 hPa 0,4 l/m 4,4 km/h (1 Bft) O 0,00 h 0,025 mm 0 W/m 13,2 C 14,5 C 6,8 km/h (2 Bft)
20/05/2008 02:00 14,2 C 93 % 998,1 hPa 0,0 l/m 2,5 km/h (1 Bft) O 0,00 h 0,025 mm 0 W/m 13,1 C 14,2 C 3,8 km/h (1 Bft)
20/05/2008 03:00 14,1 C 94 % 997,5 hPa 0,0 l/m 0,9 km/h (0 Bft) O 0,00 h 0,025 mm 0 W/m 13,1 C 14,1 C 1,6 km/h (1 Bft)
20/05/2008 04:00 13,9 C 94 % 997,5 hPa 0,0 l/m 2,7 km/h (1 Bft) O 0,00 h 0,000 mm 0 W/m 13,0 C 13,9 C 4,0 km/h (1 Bft)
20/05/2008 05:00 13,7 C 95 % 997,1 hPa 0,0 l/m 6,6 km/h (2 Bft) O-NO 0,00 h 0,000 mm 0 W/m 13,0 C 13,7 C 9,0 km/h (2 Bft)
20/05/2008 06:00 13,5 C 95 % 997,2 hPa 0,0 l/m 1,5 km/h (1 Bft) NO 0,00 h 0,000 mm 23 W/m 12,7 C 13,5 C 2,7 km/h (1 Bft)
20/05/2008 07:00 14,1 C 95 % 997,2 hPa 0,0 l/m 0,8 km/h (0 Bft) NO 0,00 h 0,025 mm 86 W/m 13,3 C 14,1 C 1,5 km/h (1 Bft)
20/05/2008 08:00 15,1 C 90 % 997,1 hPa 0,0 l/m 2,6 km/h (1 Bft) NO 0,00 h 0,051 mm 190 W/m 13,5 C 15,1 C 4,5 km/h (1 Bft)
20/05/2008 09:00 17,4 C 79 % 997,3 hPa 0,0 l/m 2,5 km/h (1 Bft) NO 0,00 h 0,102 mm 213 W/m 13,8 C 17,4 C 4,3 km/h (1 Bft)
20/05/2008 10:00 18,7 C 81 % 997,7 hPa 0,0 l/m 3,5 km/h (1 Bft) E 0,67 h 0,127 mm 482 W/m 15,4 C 18,7 C 6,0 km/h (2 Bft)
20/05/2008 11:00 20,4 C 62 % 997,9 hPa 0,0 l/m 8,5 km/h (2 Bft) S 1,00 h 0,305 mm 663 W/m 12,7 C 20,4 C 12,3 km/h (3 Bft)
20/05/2008 12:00 21,8 C 55 % 998,0 hPa 0,0 l/m 9,1 km/h (2 Bft) S 1,00 h 0,457 mm 798 W/m 12,3 C 21,8 C 13,9 km/h (3 Bft)
20/05/2008 13:00 22,2 C 55 % 998,3 hPa 0,0 l/m 11,9 km/h (2 Bft) S-SE 0,83 h 0,533 mm 748 W/m 12,6 C 22,2 C 18,1 km/h (3 Bft)
20/05/2008 14:00 21,0 C 58 % 998,9 hPa 0,0 l/m 12,2 km/h (2 Bft) S-SE 0,67 h 0,533 mm 608 W/m 12,3 C 21,0 C 18,0 km/h (3 Bft)
20/05/2008 15:00 20,8 C 57 % 999,3 hPa 0,0 l/m 11,1 km/h (2 Bft) S-SE 0,47 h 0,432 mm 498 W/m 11,8 C 20,8 C 16,1 km/h (3 Bft)
20/05/2008 16:00 20,8 C 57 % 999,7 hPa 0,0 l/m 7,8 km/h (2 Bft) S-SE 0,62 h 0,356 mm 470 W/m 12,0 C 20,8 C 12,1 km/h (2 Bft)
20/05/2008 17:00 19,3 C 64 % 1000,4 hPa 0,0 l/m 9,4 km/h (2 Bft) S-SE 0,03 h 0,330 mm 185 W/m 12,4 C 19,3 C 14,2 km/h (3 Bft)
20/05/2008 18:00 18,0 C 71 % 1000,9 hPa 0,6 l/m 4,9 km/h (1 Bft) S-SE 0,00 h 0,152 mm 55 W/m 12,7 C 18,0 C 6,8 km/h (2 Bft)
20/05/2008 19:00 16,6 C 83 % 1001,4 hPa 0,0 l/m 0,3 km/h (0 Bft) S-SE 0,00 h 0,051 mm 36 W/m 13,8 C 16,6 C 0,8 km/h (0 Bft)
20/05/2008 20:00 16,0 C 86 % 1001,7 hPa 0,2 l/m 0,3 km/h (0 Bft) S-SE 0,00 h 0,025 mm 13 W/m 13,8 C 16,0 C 1,1 km/h (1 Bft)
20/05/2008 21:00 15,3 C 87 % 1001,9 hPa 0,0 l/m 0,9 km/h (0 Bft) S-SE 0,00 h 0,000 mm 0 W/m 13,1 C 15,3 C 2,2 km/h (1 Bft)
20/05/2008 22:00 15,4 C 88 % 1002,4 hPa 0,0 l/m 3,7 km/h (1 Bft) NO 0,00 h 0,000 mm 0 W/m 13,4 C 15,4 C 5,6 km/h (1 Bft)
20/05/2008 23:00 15,7 C 87 % 1002,8 hPa 0,0 l/m 4,6 km/h (1 Bft) O 0,00 h 0,025 mm 0 W/m 13,5 C 15,7 C 6,1 km/h (2 Bft)
21/05/2008 00:00 15,3 C 87 % 1003,3 hPa 0,0 l/m 1,0 km/h (0 Bft) E-NE 0,00 h 0,025 mm 0 W/m 13,2 C 15,3 C 2,1 km/h (1 Bft)
21/05/2008 01:00 15,2 C 88 % 1003,9 hPa 0,0 l/m 4,6 km/h (1 Bft) N-NE 0,00 h 0,025 mm 0 W/m 13,2 C 15,2 C 6,9 km/h (2 Bft)
21/05/2008 02:00 15,2 C 89 % 1004,2 hPa 0,0 l/m 3,9 km/h (1 Bft) E-NE 0,00 h 0,025 mm 0 W/m 13,3 C 15,2 C 6,0 km/h (2 Bft)
21/05/2008 03:00 15,1 C 90 % 1004,3 hPa 0,0 l/m 1,1 km/h (0 Bft) E-NE 0,00 h 0,025 mm 0 W/m 13,5 C 15,1 C 2,2 km/h (1 Bft)
21/05/2008 04:00 14,9 C 91 % 1004,4 hPa 0,0 l/m 0,1 km/h (0 Bft) E-NE 0,00 h 0,025 mm 0 W/m 13,5 C 14,9 C 0,2 km/h (0 Bft)
21/05/2008 05:00 14,7 C 91 % 1004,5 hPa 0,0 l/m 0,3 km/h (0 Bft) E-NE 0,00 h 0,000 mm 0 W/m 13,3 C 14,7 C 0,5 km/h (0 Bft)
21/05/2008 06:00 14,5 C 92 % 1005,0 hPa 0,0 l/m 0,6 km/h (0 Bft) E-NE 0,00 h 0,000 mm 14 W/m 13,2 C 14,5 C 1,1 km/h (0 Bft)
21/05/2008 07:00 14,9 C 93 % 1005,5 hPa 0,0 l/m 0,0 km/h (0 Bft) E-NE 0,00 h 0,000 mm 59 W/m 13,7 C 14,9 C 0,1 km/h (0 Bft)
21/05/2008 08:00 15,7 C 93 % 1006,0 hPa 0,0 l/m 0,5 km/h (0 Bft) E-NE 0,00 h 0,025 mm 155 W/m 14,5 C 15,7 C 1,4 km/h (1 Bft)
21/05/2008 09:00 16,9 C 87 % 1006,2 hPa 0,0 l/m 6,2 km/h (2 Bft) SO 0,00 h 0,076 mm 259 W/m 14,8 C 16,9 C 8,8 km/h (2 Bft)
21/05/2008 10:00 17,8 C 79 % 1006,5 hPa 0,0 l/m 7,9 km/h (2 Bft) SO 0,13 h 0,152 mm 346 W/m 14,0 C 17,8 C 11,2 km/h (2 Bft)
21/05/2008 11:00 18,4 C 76 % 1006,7 hPa 0,0 l/m 7,8 km/h (2 Bft) SO 0,13 h 0,229 mm 309 W/m 14,0 C 18,4 C 11,0 km/h (2 Bft)
21/05/2008 12:00 19,1 C 73 % 1006,7 hPa 0,0 l/m 13,3 km/h (3 Bft) S-SO 0,62 h 0,203 mm 558 W/m 14,1 C 19,1 C 18,1 km/h (3 Bft)
21/05/2008 13:00 20,1 C 69 % 1006,5 hPa 0,0 l/m 13,4 km/h (3 Bft) SO 0,97 h 0,381 mm 676 W/m 14,2 C 20,1 C 18,7 km/h (3 Bft)
21/05/2008 14:00 20,2 C 68 % 1006,5 hPa 0,0 l/m 11,8 km/h (2 Bft) S-SE 0,40 h 0,457 mm 437 W/m 14,0 C 20,2 C 17,6 km/h (3 Bft)
21/05/2008 15:00 20,1 C 67 % 1006,5 hPa 0,0 l/m 12,7 km/h (3 Bft) S-SE 0,58 h 0,305 mm 484 W/m 13,9 C 20,1 C 18,7 km/h (3 Bft)
21/05/2008 16:00 20,0 C 69 % 1006,6 hPa 0,0 l/m 8,4 km/h (2 Bft) S 0,77 h 0,330 mm 464 W/m 14,2 C 20,0 C 13,1 km/h (3 Bft)
21/05/2008 17:00 19,5 C 75 % 1006,6 hPa 0,0 l/m 8,3 km/h (2 Bft) S-SE 0,17 h 0,330 mm 302 W/m 14,9 C 19,5 C 12,3 km/h (3 Bft)
21/05/2008 18:00 18,9 C 78 % 1006,7 hPa 0,0 l/m 3,0 km/h (1 Bft) S-SE 0,00 h 0,203 mm 69 W/m 15,0 C 18,9 C 5,6 km/h (1 Bft)
21/05/2008 19:00 17,8 C 84 % 1007,1 hPa 0,0 l/m 2,9 km/h (1 Bft) E-NE 0,00 h 0,051 mm 29 W/m 15,1 C 17,8 C 5,1 km/h (1 Bft)
21/05/2008 20:00 16,9 C 87 % 1007,3 hPa 0,0 l/m 0,1 km/h (0 Bft) N 0,00 h 0,025 mm 8 W/m 14,8 C 16,9 C 0,2 km/h (0 Bft)
21/05/2008 21:00 16,2 C 89 % 1007,6 hPa 0,0 l/m 0,5 km/h (0 Bft) E-NE 0,00 h 0,000 mm 0 W/m 14,3 C 16,2 C 0,9 km/h (0 Bft)
21/05/2008 22:00 16,0 C 90 % 1008,1 hPa 0,0 l/m 1,8 km/h (1 Bft) E-NE 0,00 h 0,000 mm 0 W/m 14,4 C 16,0 C 3,0 km/h (1 Bft)
21/05/2008 23:00 15,0 C 91 % 1008,1 hPa 0,0 l/m 2,5 km/h (1 Bft) NO 0,00 h 0,025 mm 0 W/m 13,6 C 15,0 C 3,8 km/h (1 Bft)
22/05/2008 00:00 14,5 C 92 % 1008,1 hPa 0,0 l/m 4,0 km/h (1 Bft) O 0,00 h 0,025 mm 0 W/m 13,3 C 14,5 C 5,3 km/h (1 Bft)
22/05/2008 01:00 14,5 C 93 % 1008,1 hPa 0,0 l/m 4,6 km/h (1 Bft) O 0,00 h 0,025 mm 0 W/m 13,3 C 14,5 C 6,0 km/h (2 Bft)
22/05/2008 02:00 13,7 C 92 % 1007,8 hPa 0,0 l/m 4,4 km/h (1 Bft) NO 0,00 h 0,025 mm 0 W/m 12,5 C 13,7 C 6,4 km/h (2 Bft)
22/05/2008 03:00 13,4 C 92 % 1007,6 hPa 0,0 l/m 3,1 km/h (1 Bft) NO 0,00 h 0,025 mm 0 W/m 12,1 C 13,4 C 4,8 km/h (1 Bft)
22/05/2008 04:00 12,9 C 91 % 1007,6 hPa 0,0 l/m 1,7 km/h (1 Bft) NO 0,00 h 0,025 mm 0 W/m 11,6 C 12,9 C 2,7 km/h (1 Bft)
22/05/2008 05:00 13,0 C 92 % 1007,4 hPa 0,0 l/m 3,6 km/h (1 Bft) O-NO 0,00 h 0,025 mm 0 W/m 11,6 C 13,0 C 4,9 km/h (1 Bft)
22/05/2008 06:00 12,6 C 91 % 1008,0 hPa 0,0 l/m 1,7 km/h (1 Bft) O-NO 0,00 h 0,000 mm 19 W/m 11,1 C 12,6 C 2,8 km/h (1 Bft)
22/05/2008 07:00 13,6 C 91 % 1008,4 hPa 0,0 l/m 0,9 km/h (0 Bft) O-NO 0,38 h 0,025 mm 116 W/m 12,1 C 13,6 C 1,9 km/h (1 Bft)
22/05/2008 08:00 16,1 C 81 % 1008,6 hPa 0,0 l/m 0,6 km/h (0 Bft) O-NO 0,82 h 0,076 mm 329 W/m 12,7 C 16,1 C 2,1 km/h (1 Bft)
22/05/2008 09:00 19,0 C 69 % 1008,8 hPa 0,0 l/m 3,7 km/h (1 Bft) E 1,00 h 0,178 mm 534 W/m 13,2 C 19,0 C 6,2 km/h (2 Bft)
22/05/2008 10:00 19,9 C 73 % 1008,9 hPa 0,0 l/m 7,8 km/h (2 Bft) E 0,95 h 0,330 mm 726 W/m 14,9 C 19,9 C 12,2 km/h (2 Bft)
22/05/2008 11:00 20,9 C 70 % 1009,1 hPa 0,0 l/m 12,3 km/h (3 Bft) E 1,00 h 0,457 mm 944 W/m 15,2 C 20,9 C 17,2 km/h (3 Bft)
22/05/2008 12:00 21,0 C 65 % 1009,6 hPa 0,0 l/m 10,8 km/h (2 Bft) E 0,97 h 0,584 mm 893 W/m 14,1 C 21,0 C 16,9 km/h (3 Bft)
22/05/2008 13:00 21,0 C 59 % 1009,9 hPa 0,0 l/m 10,3 km/h (2 Bft) E 0,92 h 0,584 mm 860 W/m 12,7 C 21,0 C 16,2 km/h (3 Bft)
22/05/2008 14:00 20,4 C 63 % 1010,1 hPa 0,0 l/m 8,3 km/h (2 Bft) E 0,33 h 0,559 mm 546 W/m 13,1 C 20,4 C 12,2 km/h (2 Bft)
22/05/2008 15:00 21,5 C 64 % 1009,9 hPa 0,0 l/m 8,4 km/h (2 Bft) E 1,00 h 0,432 mm 836 W/m 14,4 C 21,5 C 12,3 km/h (3 Bft)
22/05/2008 16:00 21,5 C 63 % 1009,6 hPa 0,0 l/m 7,5 km/h (2 Bft) E 1,00 h 0,533 mm 672 W/m 14,3 C 21,5 C 11,7 km/h (2 Bft)
22/05/2008 17:00 20,6 C 68 % 1009,5 hPa 0,0 l/m 7,5 km/h (2 Bft) E 0,97 h 0,432 mm 499 W/m 14,6 C 20,6 C 12,2 km/h (2 Bft)
22/05/2008 18:00 19,6 C 73 % 1009,2 hPa 0,0 l/m 8,6 km/h (2 Bft) E-NE 0,40 h 0,330 mm 214 W/m 14,6 C 19,6 C 12,6 km/h (3 Bft)
22/05/2008 19:00 18,6 C 76 % 1009,2 hPa 0,0 l/m 7,7 km/h (2 Bft) NE 0,37 h 0,152 mm 130 W/m 14,2 C 18,6 C 11,8 km/h (2 Bft)
22/05/2008 20:00 17,2 C 79 % 1009,4 hPa 0,0 l/m 5,8 km/h (2 Bft) E 0,00 h 0,102 mm 23 W/m 13,4 C 17,2 C 8,4 km/h (2 Bft)
22/05/2008 21:00 16,3 C 84 % 1009,7 hPa 0,0 l/m 2,3 km/h (1 Bft) E 0,00 h 0,025 mm 0 W/m 13,5 C 16,3 C 4,0 km/h (1 Bft)
22/05/2008 22:00 15,6 C 88 % 1010,2 hPa 0,0 l/m 3,7 km/h (1 Bft) S 0,00 h 0,000 mm 0 W/m 13,5 C 15,6 C 4,6 km/h (1 Bft)
22/05/2008 23:00 15,0 C 90 % 1010,2 hPa 0,0 l/m 6,5 km/h (2 Bft) SO 0,00 h 0,025 mm 0 W/m 13,4 C 15,0 C 7,7 km/h (2 Bft)
23/05/2008 00:00 14,6 C 91 % 1010,2 hPa 0,0 l/m 7,3 km/h (2 Bft) O 0,00 h 0,025 mm 0 W/m 13,2 C 14,6 C 9,0 km/h (2 Bft)
23/05/2008 01:00 14,5 C 92 % 1010,2 hPa 0,0 l/m 6,6 km/h (2 Bft) O-SO 0,00 h 0,025 mm 0 W/m 13,2 C 14,5 C 8,5 km/h (2 Bft)
23/05/2008 02:00 13,9 C 93 % 1010,2 hPa 0,0 l/m 7,0 km/h (2 Bft) O 0,00 h 0,025 mm 0 W/m 12,8 C 13,9 C 9,5 km/h (2 Bft)
23/05/2008 03:00 13,3 C 93 % 1010,2 hPa 0,0 l/m 7,1 km/h (2 Bft) O 0,00 h 0,025 mm 0 W/m 12,2 C 13,3 C 9,1 km/h (2 Bft)
23/05/2008 04:00 12,7 C 93 % 1010,1 hPa 0,0 l/m 7,9 km/h (2 Bft) O-NO 0,00 h 0,025 mm 0 W/m 11,6 C 12,7 C 10,2 km/h (2 Bft)
23/05/2008 05:00 12,6 C 92 % 1010,0 hPa 0,0 l/m 8,1 km/h (2 Bft) O-NO 0,00 h 0,025 mm 0 W/m 11,3 C 12,6 C 10,4 km/h (2 Bft)
23/05/2008 06:00 13,2 C 89 % 1010,1 hPa 0,0 l/m 7,6 km/h (2 Bft) O-NO 0,02 h 0,025 mm 22 W/m 11,5 C 13,2 C 9,6 km/h (2 Bft)
23/05/2008 07:00 14,2 C 83 % 1010,4 hPa 0,0 l/m 5,8 km/h (2 Bft) O-NO 0,00 h 0,025 mm 80 W/m 11,3 C 14,2 C 8,0 km/h (2 Bft)
23/05/2008 08:00 16,6 C 77 % 1010,4 hPa 0,0 l/m 3,1 km/h (1 Bft) O-NO 1,00 h 0,051 mm 338 W/m 12,5 C 16,6 C 4,9 km/h (1 Bft)
23/05/2008 09:00 18,2 C 73 % 1010,7 hPa 0,0 l/m 4,6 km/h (1 Bft) S 0,67 h 0,203 mm 384 W/m 13,3 C 18,2 C 7,5 km/h (2 Bft)
23/05/2008 10:00 19,3 C 71 % 1010,7 hPa 0,0 l/m 5,3 km/h (1 Bft) E 0,32 h 0,229 mm 413 W/m 13,9 C 19,3 C 9,3 km/h (2 Bft)
23/05/2008 11:00 20,5 C 67 % 1010,7 hPa 0,0 l/m 10,1 km/h (2 Bft) E 0,67 h 0,254 mm 741 W/m 14,2 C 20,5 C 15,2 km/h (3 Bft)
23/05/2008 12:00 20,3 C 69 % 1010,9 hPa 0,0 l/m 11,3 km/h (2 Bft) E 0,33 h 0,457 mm 522 W/m 14,4 C 20,3 C 16,5 km/h (3 Bft)
23/05/2008 13:00 19,7 C 72 % 1011,1 hPa 0,0 l/m 9,9 km/h (2 Bft) E 0,12 h 0,381 mm 385 W/m 14,5 C 19,7 C 14,6 km/h (3 Bft)
23/05/2008 14:00 19,5 C 74 % 1011,3 hPa 0,0 l/m 8,3 km/h (2 Bft) E 0,07 h 0,279 mm 315 W/m 14,7 C 19,5 C 12,5 km/h (3 Bft)
23/05/2008 15:00 18,9 C 77 % 1011,4 hPa 0,0 l/m 5,7 km/h (1 Bft) E 0,10 h 0,203 mm 263 W/m 14,7 C 18,9 C 8,2 km/h (2 Bft)
23/05/2008 16:00 18,6 C 77 % 1011,1 hPa 0,0 l/m 5,0 km/h (1 Bft) E-NE 0,00 h 0,178 mm 128 W/m 14,5 C 18,6 C 7,8 km/h (2 Bft)
23/05/2008 17:00 19,4 C 74 % 1010,8 hPa 0,0 l/m 6,2 km/h (2 Bft) E-NE 0,35 h 0,102 mm 292 W/m 14,7 C 19,4 C 8,9 km/h (2 Bft)
23/05/2008 18:00 18,8 C 76 % 1010,5 hPa 0,0 l/m 4,5 km/h (1 Bft) E 0,17 h 0,203 mm 182 W/m 14,5 C 18,8 C 6,9 km/h (2 Bft)
23/05/2008 19:00 18,7 C 75 % 1010,6 hPa 0,0 l/m 2,3 km/h (1 Bft) NE 0,40 h 0,127 mm 129 W/m 14,2 C 18,7 C 4,1 km/h (1 Bft)
23/05/2008 20:00 16,8 C 81 % 1010,8 hPa 0,0 l/m 0,4 km/h (0 Bft) E-NE 0,00 h 0,076 mm 22 W/m 13,4 C 16,8 C 1,3 km/h (1 Bft)
23/05/2008 21:00 15,8 C 85 % 1010,9 hPa 0,0 l/m 0,2 km/h (0 Bft) E-NE 0,00 h 0,025 mm 0 W/m 13,2 C 15,8 C 0,6 km/h (0 Bft)
23/05/2008 22:00 15,4 C 88 % 1011,4 hPa 0,0 l/m 0,3 km/h (0 Bft) E-NE 0,00 h 0,000 mm 0 W/m 13,4 C 15,4 C 0,8 km/h (0 Bft)
23/05/2008 23:00 15,0 C 89 % 1011,0 hPa 0,0 l/m 0,1 km/h (0 Bft) E-NE 0,00 h 0,025 mm 0 W/m 13,2 C 15,0 C 0,6 km/h (0 Bft)
24/05/2008 00:00 15,0 C 91 % 1010,9 hPa 0,0 l/m 0,6 km/h (0 Bft) E-NE 0,00 h 0,025 mm 0 W/m 13,5 C 15,0 C 1,7 km/h (1 Bft)
24/05/2008 01:00 14,9 C 91 % 1010,9 hPa 0,0 l/m 0,1 km/h (0 Bft) NE 0,00 h 0,025 mm 0 W/m 13,4 C 14,9 C 0,5 km/h (0 Bft)
24/05/2008 02:00 15,0 C 92 % 1011,0 hPa 0,0 l/m 1,6 km/h (1 Bft) NE 0,00 h 0,000 mm 0 W/m 13,7 C 15,0 C 3,0 km/h (1 Bft)
24/05/2008 03:00 15,1 C 93 % 1010,8 hPa 0,0 l/m 0,8 km/h (0 Bft) N 0,00 h 0,025 mm 0 W/m 13,9 C 15,1 C 2,6 km/h (1 Bft)
24/05/2008 04:00 14,9 C 93 % 1010,8 hPa 0,6 l/m 1,7 km/h (1 Bft) N 0,00 h 0,000 mm 0 W/m 13,8 C 14,9 C 3,6 km/h (1 Bft)
24/05/2008 05:00 14,7 C 93 % 1010,5 hPa 0,0 l/m 3,4 km/h (1 Bft) N-NE 0,00 h 0,000 mm 0 W/m 13,6 C 14,7 C 6,2 km/h (2 Bft)
24/05/2008 06:00 14,5 C 94 % 1010,4 hPa 0,0 l/m 1,5 km/h (1 Bft) NE 0,00 h 0,000 mm 16 W/m 13,5 C 14,5 C 2,3 km/h (1 Bft)
24/05/2008 07:00 14,8 C 94 % 1010,8 hPa 0,0 l/m 1,3 km/h (1 Bft) NE 0,00 h 0,000 mm 70 W/m 13,9 C 14,8 C 2,8 km/h (1 Bft)
24/05/2008 08:00 15,8 C 94 % 1010,8 hPa 0,0 l/m 2,6 km/h (1 Bft) E-NE 0,00 h 0,051 mm 149 W/m 14,8 C 15,8 C 4,7 km/h (1 Bft)
24/05/2008 09:00 16,8 C 90 % 1011,5 hPa 0,0 l/m 3,2 km/h (1 Bft) N-NE 0,05 h 0,076 mm 168 W/m 15,2 C 16,8 C 5,6 km/h (1 Bft)
24/05/2008 10:00 17,5 C 85 % 1011,5 hPa 0,0 l/m 6,1 km/h (2 Bft) NE 0,00 h 0,102 mm 207 W/m 15,0 C 17,5 C 9,4 km/h (2 Bft)
24/05/2008 11:00 17,8 C 87 % 1011,8 hPa 0,2 l/m 10,7 km/h (2 Bft) E-NE 0,12 h 0,127 mm 251 W/m 15,6 C 17,8 C 15,3 km/h (3 Bft)
24/05/2008 12:00 19,9 C 80 % 1011,2 hPa 0,0 l/m 12,8 km/h (3 Bft) E-NE 0,35 h 0,178 mm 557 W/m 16,3 C 19,9 C 18,4 km/h (3 Bft)
24/05/2008 13:00 21,9 C 72 % 1010,5 hPa 0,0 l/m 10,5 km/h (2 Bft) E-NE 0,97 h 0,381 mm 895 W/m 16,6 C 21,9 C 16,8 km/h (3 Bft)
24/05/2008 14:00 19,8 C 78 % 1010,5 hPa 0,0 l/m 12,1 km/h (2 Bft) E 0,03 h 0,584 mm 368 W/m 15,7 C 19,8 C 19,2 km/h (3 Bft)
24/05/2008 15:00 18,4 C 84 % 1011,0 hPa 0,0 l/m 17,8 km/h (3 Bft) E-NE 0,00 h 0,254 mm 182 W/m 15,7 C 18,4 C 25,0 km/h (4 Bft)
24/05/2008 16:00 17,5 C 89 % 1011,3 hPa 0,0 l/m 16,6 km/h (3 Bft) E-NE 0,00 h 0,152 mm 63 W/m 15,7 C 17,5 C 22,9 km/h (4 Bft)
24/05/2008 17:00 17,2 C 90 % 1011,7 hPa 0,0 l/m 14,7 km/h (3 Bft) E 0,00 h 0,076 mm 29 W/m 15,6 C 17,2 C 21,2 km/h (4 Bft)
24/05/2008 18:00 17,1 C 91 % 1011,5 hPa 0,0 l/m 11,9 km/h (2 Bft) E-NE 0,00 h 0,051 mm 36 W/m 15,6 C 17,1 C 17,2 km/h (3 Bft)
24/05/2008 19:00 17,1 C 90 % 1011,2 hPa 0,0 l/m 7,0 km/h (2 Bft) E-NE 0,00 h 0,051 mm 14 W/m 15,5 C 17,1 C 10,5 km/h (2 Bft)
24/05/2008 20:00 16,9 C 91 % 1011,4 hPa 0,0 l/m 5,0 km/h (1 Bft) E-NE 0,00 h 0,025 mm 9 W/m 15,4 C 16,9 C 7,3 km/h (2 Bft)
24/05/2008 21:00 16,8 C 91 % 1011,6 hPa 0,0 l/m 1,3 km/h (1 Bft) E 0,00 h 0,025 mm 0 W/m 15,3 C 16,8 C 2,3 km/h (1 Bft)
24/05/2008 22:00 16,8 C 92 % 1011,9 hPa 0,0 l/m 4,1 km/h (1 Bft) S-SE 0,00 h 0,000 mm 0 W/m 15,5 C 16,8 C 6,3 km/h (2 Bft)
24/05/2008 23:00 16,9 C 93 % 1012,3 hPa 0,0 l/m 7,1 km/h (2 Bft) E 0,00 h 0,025 mm 0 W/m 15,8 C 16,9 C 10,3 km/h (2 Bft)
25/05/2008 00:00 16,6 C 94 % 1012,3 hPa 0,0 l/m 1,2 km/h (1 Bft) E 0,00 h 0,025 mm 0 W/m 15,6 C 16,6 C 2,9 km/h (1 Bft)
25/05/2008 01:00 16,1 C 94 % 1012,0 hPa 0,0 l/m 2,0 km/h (1 Bft) N-NO 0,00 h 0,000 mm 0 W/m 15,1 C 16,1 C 3,7 km/h (1 Bft)
25/05/2008 02:00 15,6 C 95 % 1011,6 hPa 0,0 l/m 1,9 km/h (1 Bft) N-NO 0,00 h 0,000 mm 0 W/m 14,8 C 15,6 C 3,9 km/h (1 Bft)
25/05/2008 03:00 15,4 C 95 % 1011,0 hPa 0,0 l/m 2,5 km/h (1 Bft) N 0,00 h 0,000 mm 0 W/m 14,6 C 15,4 C 4,5 km/h (1 Bft)
25/05/2008 04:00 15,3 C 94 % 1011,1 hPa 0,4 l/m 4,3 km/h (1 Bft) N 0,00 h 0,000 mm 0 W/m 14,4 C 15,3 C 7,4 km/h (2 Bft)
25/05/2008 05:00 15,2 C 94 % 1011,4 hPa 0,0 l/m 4,2 km/h (1 Bft) S 0,00 h 0,025 mm 0 W/m 14,3 C 15,2 C 6,5 km/h (2 Bft)
25/05/2008 06:00 15,2 C 95 % 1011,8 hPa 0,0 l/m 2,8 km/h (1 Bft) N-NE 0,00 h 0,000 mm 11 W/m 14,4 C 15,2 C 5,2 km/h (1 Bft)
25/05/2008 07:00 15,3 C 95 % 1011,8 hPa 0,2 l/m 3,7 km/h (1 Bft) N-NE 0,00 h 0,000 mm 24 W/m 14,5 C 15,3 C 6,3 km/h (2 Bft)
25/05/2008 08:00 15,6 C 95 % 1012,1 hPa 0,2 l/m 1,6 km/h (1 Bft) N 0,00 h 0,025 mm 51 W/m 14,8 C 15,6 C 3,3 km/h (1 Bft)
25/05/2008 09:00 15,8 C 95 % 1013,0 hPa 1,0 l/m 1,5 km/h (1 Bft) E 0,00 h 0,025 mm 58 W/m 15,0 C 15,8 C 2,6 km/h (1 Bft)
25/05/2008 10:00 15,9 C 95 % 1013,7 hPa 2,0 l/m 1,3 km/h (1 Bft) N 0,00 h 0,025 mm 65 W/m 15,1 C 15,9 C 3,3 km/h (1 Bft)
25/05/2008 11:00 16,3 C 96 % 1012,6 hPa 0,4 l/m 7,0 km/h (2 Bft) NE 0,00 h 0,025 mm 132 W/m 15,7 C 16,3 C 10,3 km/h (2 Bft)
25/05/2008 12:00 16,3 C 96 % 1012,0 hPa 0,0 l/m 13,3 km/h (3 Bft) E-NE 0,00 h 0,076 mm 168 W/m 15,7 C 16,3 C 18,0 km/h (3 Bft)
25/05/2008 13:00 16,6 C 96 % 1013,6 hPa 0,8 l/m 3,0 km/h (1 Bft) NO 0,00 h 0,102 mm 139 W/m 15,9 C 16,6 C 5,4 km/h (1 Bft)
25/05/2008 14:00 17,0 C 96 % 1012,8 hPa 0,2 l/m 10,3 km/h (2 Bft) N-NE 0,15 h 0,076 mm 307 W/m 16,3 C 17,0 C 16,2 km/h (3 Bft)
25/05/2008 15:00 17,6 C 92 % 1010,9 hPa 0,0 l/m 9,2 km/h (2 Bft) N-NE 0,00 h 0,178 mm 266 W/m 16,3 C 17,6 C 13,9 km/h (3 Bft)
25/05/2008 16:00 18,4 C 84 % 1011,1 hPa 0,0 l/m 10,9 km/h (2 Bft) NE 0,00 h 0,152 mm 240 W/m 15,7 C 18,4 C 16,0 km/h (3 Bft)
25/05/2008 17:00 19,0 C 83 % 1010,6 hPa 0,0 l/m 7,0 km/h (2 Bft) NE 0,00 h 0,178 mm 168 W/m 16,0 C 19,0 C 9,8 km/h (2 Bft)
25/05/2008 18:00 19,0 C 81 % 1010,2 hPa 0,0 l/m 5,9 km/h (2 Bft) E-NE 0,00 h 0,127 mm 103 W/m 15,7 C 19,0 C 8,2 km/h (2 Bft)
25/05/2008 19:00 18,5 C 80 % 1010,5 hPa 0,0 l/m 6,8 km/h (2 Bft) N-NE 0,00 h 0,076 mm 47 W/m 15,0 C 18,5 C 10,1 km/h (2 Bft)
25/05/2008 20:00 18,6 C 77 % 1010,1 hPa 0,0 l/m 7,4 km/h (2 Bft) NE 0,00 h 0,051 mm 24 W/m 14,5 C 18,6 C 10,3 km/h (2 Bft)
25/05/2008 21:00 17,6 C 82 % 1010,3 hPa 0,0 l/m 4,2 km/h (1 Bft) N-NE 0,00 h 0,051 mm 0 W/m 14,4 C 17,6 C 6,5 km/h (2 Bft)
25/05/2008 22:00 17,2 C 81 % 1010,4 hPa 0,0 l/m 3,3 km/h (1 Bft) N-NE 0,00 h 0,025 mm 0 W/m 14,0 C 17,2 C 5,6 km/h (1 Bft)
25/05/2008 23:00 17,1 C 82 % 1010,1 hPa 0,0 l/m 5,8 km/h (2 Bft) E-NE 0,00 h 0,025 mm 0 W/m 14,0 C 17,1 C 8,1 km/h (2 Bft)
Min-Date _ 22/05/08 20/05/08 20/05/08 - 19/05/08 - - - - 22/05/08 22/05/08 19/05/08
_ Min-Heure 06:38 13:06 05:45 - 00:00 - - - - 13:58 06:38 00:09
Minimum _ 12,2 C 49 % 996,9 hPa - 0,0 km/h (0 Bft) - - - - 10,5 C 12,2 C 0,0 km/h (0 Bft)
Max-Date _ 20/05/08 20/05/08 25/05/08 25/05/08 24/05/08 - 19/05/08 22/05/08 24/05/08 25/05/08 20/05/08 20/05/08
_ Max-Heure 13:06 05:40 13:30 10:03 15:40 - 07:38 12:00 12:31 14:09 13:06 00:32
Maximum _ 22,9 C 100 % 1014,1 hPa 2,0 l/m 25,7 km/h
E-NE (4 Bft)
- 0,02 h 0,584 mm 1239 W/m 17,3 C 22,9 C 38,6 km/h
E-NE (5 Bft)
Moyenne _ 16,9 C 83 % 1007,0 hPa #7,4 l/m 5,1 km/h (1 Bft) E #31:07 h #21,161 mm 291 W/m 13,9 C 16,9 C 7,8 km/h (2 Bft)
Roquefort les pins